Time;durP1;ratioP1;P1;durP2;ratioP2;P2;SDS_P1;SDS_P2;PMS_P1;PMS_P2;Temp;Humidity;BMP_temperature;BMP_pressure;BME280_temperature;BME280_humidity;BME280_pressure;Samples;Min_cycle;Max_cycle;Signal;HPM_P1;HPM_P2
2023/03/09 00:00:54;;;;;;;11.77;8.18;;;6.20;99.90;;;;;;5034996;28;20025;-52
2023/03/09 00:03:20;;;;;;;15.10;8.57;;;6.20;99.90;;;;;;5035056;28;20026;-52
2023/03/09 00:05:57;;;;;;;8.00;7.18;;;6.10;99.90;;;;;;5034883;28;20362;-52
2023/03/09 00:08:24;;;;;;;8.82;7.63;;;6.10;99.90;;;;;;5034868;28;20057;-52
2023/03/09 00:10:52;;;;;;;13.77;7.90;;;6.10;99.90;;;;;;5034844;28;20451;-53
2023/03/09 00:13:19;;;;;;;13.90;9.27;;;6.10;99.90;;;;;;5034763;28;20100;-53
2023/03/09 00:15:49;;;;;;;10.45;7.95;;;6.10;99.90;;;;;;5034647;28;20057;-52
2023/03/09 00:18:19;;;;;;;13.57;8.55;;;6.10;99.90;;;;;;5034720;28;20072;-52
2023/03/09 00:20:45;;;;;;;11.00;8.10;;;6.10;99.90;;;;;;5034568;28;20038;-52
2023/03/09 00:23:11;;;;;;;13.25;8.10;;;6.10;99.90;;;;;;5034588;28;20040;-51
2023/03/09 00:25:38;;;;;;;10.77;8.68;;;6.10;99.90;;;;;;5034442;28;20025;-52
2023/03/09 00:28:04;;;;;;;10.70;7.18;;;6.10;99.90;;;;;;5034433;28;20373;-52
2023/03/09 00:30:30;;;;;;;8.60;7.43;;;6.20;99.90;;;;;;5034392;28;20026;-53
2023/03/09 00:32:55;;;;;;;9.35;6.25;;;6.10;99.90;;;;;;5034282;28;20380;-51
2023/03/09 00:35:21;;;;;;;11.30;7.88;;;6.20;99.90;;;;;;5034336;28;20375;-53
2023/03/09 00:37:47;;;;;;;8.82;7.78;;;6.20;99.90;;;;;;5034095;28;20033;-52
2023/03/09 00:40:14;;;;;;;9.50;7.95;;;6.20;99.90;;;;;;5034235;28;20018;-52
2023/03/09 00:42:43;;;;;;;8.73;7.28;;;6.20;99.90;;;;;;5034101;28;20028;-53
2023/03/09 00:45:09;;;;;;;10.65;7.00;;;6.10;99.90;;;;;;5034185;28;20030;-53
2023/03/09 00:47:35;;;;;;;10.55;7.53;;;6.10;99.90;;;;;;5034041;28;20036;-51
2023/03/09 00:50:01;;;;;;;11.63;6.55;;;6.10;99.90;;;;;;5033868;28;20105;-55
2023/03/09 00:52:27;;;;;;;7.63;6.50;;;6.10;99.90;;;;;;5032204;28;20025;-54
2023/03/09 00:54:53;;;;;;;9.57;7.13;;;6.10;99.90;;;;;;5033951;28;20032;-52
2023/03/09 00:57:20;;;;;;;9.45;7.57;;;6.00;99.90;;;;;;5033750;28;20113;-51
2023/03/09 00:59:46;;;;;;;8.43;7.53;;;6.00;99.90;;;;;;5033839;28;20029;-54
2023/03/09 01:02:12;;;;;;;8.18;6.38;;;6.00;99.90;;;;;;5033846;28;20036;-51
2023/03/09 01:04:37;;;;;;;7.82;6.80;;;6.00;99.90;;;;;;5033493;28;20017;-53
2023/03/09 01:07:03;;;;;;;7.18;6.47;;;5.90;99.90;;;;;;5033691;28;20100;-51
2023/03/09 01:09:29;;;;;;;10.70;6.47;;;5.90;99.90;;;;;;5032400;28;20083;-53
2023/03/09 01:11:55;;;;;;;8.27;6.40;;;5.90;99.90;;;;;;5033457;28;20103;-52
2023/03/09 01:14:20;;;;;;;8.02;6.50;;;5.90;99.90;;;;;;5033582;28;20358;-51
2023/03/09 01:16:46;;;;;;;11.07;6.97;;;5.90;99.90;;;;;;5033468;28;20034;-51
2023/03/09 01:19:12;;;;;;;10.85;6.90;;;5.90;99.90;;;;;;5033419;28;20079;-52
2023/03/09 01:21:37;;;;;;;7.80;6.07;;;5.80;99.90;;;;;;5032064;28;20030;-52
2023/03/09 01:24:03;;;;;;;9.13;6.70;;;5.80;99.90;;;;;;5033492;28;20025;-51
2023/03/09 01:26:28;;;;;;;7.40;6.65;;;5.70;99.90;;;;;;5033271;28;20021;-54
2023/03/09 01:28:54;;;;;;;8.18;6.63;;;5.60;99.90;;;;;;5033405;28;20037;-52
2023/03/09 01:31:20;;;;;;;7.13;6.25;;;5.50;99.90;;;;;;5031913;28;20029;-53
2023/03/09 01:33:48;;;;;;;7.47;6.70;;;5.50;99.90;;;;;;5033150;28;20029;-53
2023/03/09 01:36:15;;;;;;;8.40;7.32;;;5.40;99.90;;;;;;5033159;28;20030;-52
2023/03/09 01:38:42;;;;;;;8.27;5.65;;;5.40;99.90;;;;;;5033079;28;20026;-52
2023/03/09 01:41:09;;;;;;;6.85;6.03;;;5.40;99.90;;;;;;5032965;28;20067;-51
2023/03/09 01:43:40;;;;;;;8.00;6.75;;;5.30;99.90;;;;;;5033085;28;20021;-52
2023/03/09 01:46:27;;;;;;;7.35;5.90;;;5.30;99.90;;;;;;5032930;28;20029;-51
2023/03/09 01:49:09;;;;;;;9.77;6.50;;;5.30;99.90;;;;;;5032840;28;20362;-53
2023/03/09 01:51:45;;;;;;;9.07;6.30;;;5.20;99.90;;;;;;5032837;28;20079;-52
2023/03/09 01:54:18;;;;;;;13.57;7.18;;;5.20;99.90;;;;;;5032739;28;20108;-54
2023/03/09 01:56:46;;;;;;;8.77;6.78;;;5.10;99.90;;;;;;5032596;28;20029;-51
2023/03/09 01:59:12;;;;;;;10.82;6.53;;;5.10;99.90;;;;;;5031396;28;20523;-54
2023/03/09 02:01:40;;;;;;;7.03;6.00;;;5.00;99.90;;;;;;5032679;28;20022;-52
2023/03/09 02:04:15;;;;;;;7.03;6.05;;;4.90;99.90;;;;;;5031841;28;20025;-53
2023/03/09 02:06:41;;;;;;;8.07;5.95;;;4.90;99.90;;;;;;5032637;28;20079;-51
2023/03/09 02:09:22;;;;;;;6.32;5.45;;;4.90;99.90;;;;;;5032438;28;20469;-51
2023/03/09 02:11:48;;;;;;;9.35;6.20;;;4.80;99.90;;;;;;5032428;28;20045;-54
2023/03/09 02:14:15;;;;;;;9.73;6.43;;;4.80;99.90;;;;;;5032611;28;20159;-53
2023/03/09 02:16:41;;;;;;;8.57;6.22;;;4.80;99.90;;;;;;5032395;28;20383;-52
2023/03/09 02:19:15;;;;;;;7.78;6.65;;;4.80;99.90;;;;;;5032464;28;20041;-51
2023/03/09 02:21:51;;;;;;;11.77;7.25;;;4.80;99.90;;;;;;5032257;28;20017;-52
2023/03/09 02:24:36;;;;;;;6.78;6.07;;;5.00;99.90;;;;;;5032529;28;20025;-52
2023/03/09 02:27:21;;;;;;;6.97;5.90;;;5.20;99.90;;;;;;5032358;28;20076;-51
2023/03/09 02:29:47;;;;;;;8.77;6.85;;;5.30;99.90;;;;;;5032163;28;20496;-53
2023/03/09 02:32:13;;;;;;;8.77;7.45;;;5.40;99.90;;;;;;5032099;28;20033;-52
2023/03/09 02:34:39;;;;;;;7.93;6.88;;;5.40;99.90;;;;;;5032117;28;20053;-51
2023/03/09 02:37:21;;;;;;;11.25;7.07;;;5.30;99.90;;;;;;5032166;28;20029;-52
2023/03/09 02:39:49;;;;;;;8.38;7.32;;;5.30;99.90;;;;;;5031973;28;20431;-52
2023/03/09 02:42:16;;;;;;;8.23;7.00;;;5.30;99.90;;;;;;5032043;28;20017;-52
2023/03/09 02:44:42;;;;;;;10.88;7.55;;;5.30;99.90;;;;;;5031832;28;20072;-52
2023/03/09 02:47:18;;;;;;;10.70;7.30;;;5.30;99.90;;;;;;5032062;28;20026;-51
2023/03/09 02:49:43;;;;;;;9.15;7.15;;;5.40;99.90;;;;;;5031917;28;20108;-53
2023/03/09 02:52:09;;;;;;;10.15;7.22;;;5.40;99.90;;;;;;5032066;28;20447;-51
2023/03/09 02:54:35;;;;;;;10.07;7.70;;;5.40;99.90;;;;;;5031833;28;20057;-52
2023/03/09 02:57:01;;;;;;;14.68;8.18;;;5.40;99.90;;;;;;5031874;28;20484;-52
2023/03/09 02:59:26;;;;;;;7.95;7.07;;;5.40;99.90;;;;;;5031620;28;20022;-52
2023/03/09 03:01:52;;;;;;;8.45;7.00;;;5.40;99.90;;;;;;5030607;28;20437;-52
2023/03/09 03:04:17;;;;;;;8.35;6.82;;;5.40;99.90;;;;;;5031647;28;20079;-54
2023/03/09 03:06:43;;;;;;;14.32;7.10;;;5.40;99.90;;;;;;5031529;28;20091;-52
2023/03/09 03:09:09;;;;;;;11.30;7.35;;;5.40;99.90;;;;;;5031764;28;20038;-51
2023/03/09 03:11:34;;;;;;;7.32;6.63;;;5.70;99.90;;;;;;5031280;28;20041;-53
2023/03/09 03:14:00;;;;;;;9.00;6.25;;;5.80;99.90;;;;;;5030067;28;20056;-51
2023/03/09 03:16:26;;;;;;;10.10;5.15;;;6.00;99.90;;;;;;5031403;28;20056;-52
2023/03/09 03:18:51;;;;;;;7.13;6.35;;;6.20;99.90;;;;;;5031684;28;20026;-50
2023/03/09 03:21:17;;;;;;;6.32;5.72;;;6.20;99.90;;;;;;5031401;28;20442;-52
2023/03/09 03:23:43;;;;;;;6.70;5.78;;;6.20;99.90;;;;;;5031424;28;20033;-53
2023/03/09 03:26:10;;;;;;;6.50;5.63;;;6.10;99.90;;;;;;5031599;28;20053;-51
2023/03/09 03:28:36;;;;;;;8.50;6.72;;;6.00;99.90;;;;;;5031260;28;20099;-51
2023/03/09 03:31:02;;;;;;;5.82;5.22;;;5.90;99.90;;;;;;5031608;28;20443;-50
2023/03/09 03:33:28;;;;;;;7.25;5.43;;;5.80;99.90;;;;;;5031337;28;20024;-51
2023/03/09 03:35:54;;;;;;;7.07;5.50;;;5.70;99.90;;;;;;5031324;28;20699;-52
2023/03/09 03:38:20;;;;;;;19.17;9.55;;;5.70;99.90;;;;;;5031276;28;20380;-52
2023/03/09 03:40:46;;;;;;;5.95;5.05;;;5.60;99.90;;;;;;5031233;28;20034;-53
2023/03/09 03:43:11;;;;;;;9.68;5.68;;;5.60;99.90;;;;;;5031201;28;20040;-52
2023/03/09 03:45:37;;;;;;;46.17;27.83;;;5.70;99.90;;;;;;5031229;28;20017;-51
2023/03/09 03:48:03;;;;;;;6.78;6.00;;;5.70;99.90;;;;;;5031322;28;20030;-52
2023/03/09 03:50:28;;;;;;;11.63;9.25;;;5.70;99.90;;;;;;5031107;28;20029;-51
2023/03/09 03:52:54;;;;;;;5.00;4.50;;;5.70;99.90;;;;;;5031352;28;20033;-51
2023/03/09 03:55:20;;;;;;;53.95;27.33;;;5.90;99.90;;;;;;5031152;28;20503;-52
2023/03/09 03:57:45;;;;;;;9.02;5.60;;;6.00;99.90;;;;;;5030988;28;20033;-51
2023/03/09 04:00:11;;;;;;;4.75;4.07;;;6.00;99.90;;;;;;5031208;28;20034;-51
2023/03/09 04:02:40;;;;;;;8.80;5.05;;;6.10;99.90;;;;;;5031152;28;20032;-53
2023/03/09 04:05:06;;;;;;;7.82;4.45;;;6.00;99.90;;;;;;5030988;28;20021;-51
2023/03/09 04:07:32;;;;;;;9.23;8.10;;;6.00;99.90;;;;;;5031026;28;20053;-51
2023/03/09 04:09:58;;;;;;;8.63;6.70;;;6.00;99.90;;;;;;5030945;28;20049;-51
2023/03/09 04:12:24;;;;;;;6.85;4.90;;;6.00;99.90;;;;;;5030758;28;20046;-54
2023/03/09 04:14:50;;;;;;;11.90;5.25;;;5.90;99.90;;;;;;5031087;28;20531;-52
2023/03/09 04:17:15;;;;;;;6.45;4.57;;;5.90;99.90;;;;;;5030927;28;20049;-53
2023/03/09 04:26:06;;;;;;;2.67;2.47;;;8.20;99.90;;;;;;3777205;28;21798;-59
2023/03/09 04:28:31;;;;;;;3.03;2.57;;;8.20;99.90;;;;;;4992852;28;20134;-51
2023/03/09 04:30:57;;;;;;;2.38;2.17;;;8.10;99.90;;;;;;4994836;28;20436;-49
2023/03/09 04:33:23;;;;;;;2.25;2.05;;;8.10;99.90;;;;;;4993836;28;20137;-55
2023/03/09 04:35:49;;;;;;;2.50;2.30;;;8.00;99.90;;;;;;4995312;28;20029;-50
2023/03/09 04:38:15;;;;;;;4.25;2.05;;;7.90;99.90;;;;;;4995078;28;20062;-56
2023/03/09 04:40:40;;;;;;;2.53;1.67;;;7.80;99.90;;;;;;4995064;28;20027;-53
2023/03/09 04:43:07;;;;;;;3.92;1.55;;;7.90;99.90;;;;;;4995247;28;20026;-51
2023/03/09 04:45:33;;;;;;;3.50;1.70;;;7.90;99.90;;;;;;4994889;28;20384;-53
2023/03/09 04:47:59;;;;;;;1.70;1.60;;;7.80;99.90;;;;;;4994821;28;20043;-51
2023/03/09 04:50:25;;;;;;;2.88;1.80;;;7.90;99.90;;;;;;4994869;28;20104;-49
2023/03/09 04:52:51;;;;;;;1.95;1.85;;;7.90;99.90;;;;;;4994782;28;20026;-53
2023/03/09 04:55:17;;;;;;;1.70;1.60;;;7.80;99.90;;;;;;4994873;28;20069;-49
2023/03/09 04:57:43;;;;;;;2.00;1.60;;;7.80;99.90;;;;;;4994147;28;20023;-51
2023/03/09 05:00:10;;;;;;;1.35;1.35;;;7.90;99.90;;;;;;4994242;28;20531;-51
2023/03/09 05:02:40;;;;;;;4.15;1.38;;;7.80;99.90;;;;;;4993643;28;20021;-50
2023/03/09 05:05:08;;;;;;;2.15;1.63;;;7.90;99.90;;;;;;4994044;28;20042;-49
2023/03/09 05:07:34;;;;;;;5.47;2.38;;;7.90;99.90;;;;;;4993929;28;20026;-53
2023/03/09 05:10:00;;;;;;;1.50;1.40;;;7.90;99.90;;;;;;4993691;28;20423;-49
2023/03/09 05:12:31;;;;;;;4.93;1.50;;;7.90;99.90;;;;;;4993971;28;20022;-49
2023/03/09 05:15:00;;;;;;;1.45;1.30;;;7.90;99.90;;;;;;4993691;28;20042;-51
2023/03/09 05:17:27;;;;;;;1.75;1.65;;;8.00;99.90;;;;;;4991659;28;20392;-49
2023/03/09 05:19:53;;;;;;;1.60;1.50;;;8.10;99.90;;;;;;4993449;28;20034;-50
2023/03/09 05:22:19;;;;;;;1.58;1.48;;;8.20;99.90;;;;;;4994377;28;20026;-50
2023/03/09 05:24:44;;;;;;;1.40;1.30;;;8.30;99.90;;;;;;4993875;28;20030;-49
2023/03/09 05:27:12;;;;;;;1.50;1.40;;;8.40;99.90;;;;;;4993827;28;20038;-51
2023/03/09 05:29:38;;;;;;;1.50;1.30;;;8.40;99.90;;;;;;4994115;28;20042;-50
2023/03/09 05:32:04;;;;;;;1.38;1.27;;;8.40;99.90;;;;;;4993935;28;20018;-48
2023/03/09 05:34:30;;;;;;;1.20;1.20;;;8.50;99.90;;;;;;4993567;28;20030;-50
2023/03/09 05:36:55;;;;;;;1.95;1.50;;;8.50;99.90;;;;;;4993609;28;20061;-50
2023/03/09 05:39:21;;;;;;;1.35;1.25;;;8.50;99.90;;;;;;4994369;28;20032;-50
2023/03/09 05:41:47;;;;;;;1.30;1.30;;;8.40;99.90;;;;;;4993836;28;20022;-52
2023/03/09 05:44:13;;;;;;;3.42;1.40;;;8.30;99.90;;;;;;4993846;28;20057;-56
2023/03/09 05:46:39;;;;;;;2.28;1.45;;;8.30;99.90;;;;;;4993226;28;20042;-51
2023/03/09 05:49:05;;;;;;;1.98;1.40;;;8.20;99.90;;;;;;4993672;28;20365;-50
2023/03/09 05:51:30;;;;;;;1.50;1.30;;;8.10;99.90;;;;;;4993725;28;20030;-51
2023/03/09 05:53:56;;;;;;;1.90;1.67;;;8.10;99.90;;;;;;4993945;28;20088;-49
2023/03/09 05:56:23;;;;;;;6.28;3.65;;;8.40;99.90;;;;;;4993173;28;20027;-53
2023/03/09 05:58:52;;;;;;;4.90;1.85;;;8.30;99.90;;;;;;4993331;28;20022;-52
2023/03/09 06:01:20;;;;;;;7.30;4.07;;;8.30;99.90;;;;;;4993579;28;20084;-51
2023/03/09 06:03:46;;;;;;;14.50;4.55;;;8.30;99.90;;;;;;4993293;28;20019;-52
2023/03/09 06:06:12;;;;;;;2.25;2.05;;;8.30;99.90;;;;;;4993310;28;20088;-55
2023/03/09 06:08:38;;;;;;;2.90;2.00;;;8.30;99.90;;;;;;4993175;28;20396;-51
2023/03/09 06:11:03;;;;;;;5.45;3.60;;;8.30;99.90;;;;;;4991822;28;20026;-50
2023/03/09 06:13:29;;;;;;;20.20;2.65;;;8.20;99.90;;;;;;4993215;28;20108;-50
2023/03/09 06:15:55;;;;;;;2.92;1.60;;;8.20;99.90;;;;;;4993098;28;20026;-52
2023/03/09 06:18:21;;;;;;;1.70;1.58;;;8.30;99.90;;;;;;4992681;28;20027;-50
2023/03/09 06:20:47;;;;;;;2.72;1.63;;;8.30;99.90;;;;;;4993129;28;20101;-52
2023/03/09 06:23:13;;;;;;;2.88;1.80;;;8.30;99.90;;;;;;4993388;28;20026;-52
2023/03/09 06:25:39;;;;;;;1.90;1.80;;;8.40;99.90;;;;;;4993177;28;20018;-51
2023/03/09 06:28:05;;;;;;;4.97;1.75;;;8.40;99.90;;;;;;4992383;28;20424;-50
2023/03/09 06:30:31;;;;;;;2.85;1.73;;;8.40;99.90;;;;;;4992827;28;20029;-50
2023/03/09 06:32:57;;;;;;;1.65;1.55;;;8.40;99.90;;;;;;4992637;28;20497;-51
2023/03/09 06:35:23;;;;;;;2.75;1.50;;;8.50;99.90;;;;;;4993136;28;20022;-53
2023/03/09 06:37:49;;;;;;;2.50;1.77;;;8.60;99.90;;;;;;4992895;28;20038;-49
2023/03/09 06:40:16;;;;;;;2.55;2.35;;;8.60;99.90;;;;;;4992843;28;20084;-49
2023/03/09 06:42:41;;;;;;;1.55;1.45;;;8.60;99.90;;;;;;4992734;28;20373;-54
2023/03/09 06:45:08;;;;;;;2.15;1.92;;;8.70;99.90;;;;;;4991545;28;20018;-52
2023/03/09 06:47:34;;;;;;;1.40;1.40;;;8.80;99.90;;;;;;4992317;28;20573;-50
2023/03/09 06:49:59;;;;;;;4.97;2.00;;;8.90;99.90;;;;;;4992260;28;20049;-49
2023/03/09 06:52:25;;;;;;;2.08;1.90;;;8.90;99.90;;;;;;4992631;28;20034;-51
2023/03/09 06:54:51;;;;;;;2.75;1.70;;;9.00;99.90;;;;;;4992584;28;20030;-56
2023/03/09 06:57:17;;;;;;;3.40;1.38;;;9.10;99.90;;;;;;4992700;28;20072;-50
2023/03/09 06:59:43;;;;;;;6.75;1.40;;;9.20;99.90;;;;;;4992479;28;20050;-49
2023/03/09 07:02:11;;;;;;;1.40;1.30;;;9.30;99.90;;;;;;4990758;28;20509;-53
2023/03/09 07:04:37;;;;;;;2.55;1.85;;;9.40;99.90;;;;;;4992498;28;20027;-51
2023/03/09 07:07:03;;;;;;;3.72;1.73;;;9.40;99.90;;;;;;4991106;28;20068;-49
2023/03/09 07:09:31;;;;;;;1.30;1.30;;;9.30;99.90;;;;;;4992269;28;20023;-50
2023/03/09 07:11:57;;;;;;;2.30;1.50;;;9.20;99.90;;;;;;4992139;28;20045;-51
2023/03/09 07:14:23;;;;;;;1.90;1.38;;;9.20;99.90;;;;;;4992212;28;20040;-54
2023/03/09 07:16:53;;;;;;;3.53;2.08;;;9.20;99.90;;;;;;4991957;28;20045;-50
2023/03/09 07:19:20;;;;;;;4.63;2.03;;;9.10;99.90;;;;;;4992522;28;20520;-51
2023/03/09 07:22:32;;;;;;;1.70;1.60;;;8.90;99.90;;;;;;4991939;28;20035;-50
2023/03/09 07:24:58;;;;;;;1.52;1.42;;;8.80;99.90;;;;;;4992446;28;20030;-54
2023/03/09 07:27:23;;;;;;;3.15;1.95;;;8.70;99.90;;;;;;4991707;28;20050;-53
2023/03/09 07:29:49;;;;;;;1.50;1.40;;;8.60;99.90;;;;;;4992260;28;20533;-51
2023/03/09 07:32:14;;;;;;;1.40;1.30;;;8.50;99.90;;;;;;4991841;28;20072;-51
2023/03/09 07:34:40;;;;;;;1.10;1.10;;;8.50;99.90;;;;;;4992042;28;20018;-49
2023/03/09 07:37:06;;;;;;;1.27;1.27;;;8.50;99.90;;;;;;4992269;28;20042;-51
2023/03/09 07:39:32;;;;;;;1.33;1.23;;;8.50;99.90;;;;;;4992052;28;20027;-50
2023/03/09 07:41:58;;;;;;;1.90;1.50;;;8.60;99.90;;;;;;4992099;28;20022;-53
2023/03/09 07:44:23;;;;;;;1.60;1.30;;;8.60;99.90;;;;;;4992374;28;20023;-54
2023/03/09 07:46:49;;;;;;;1.42;1.20;;;8.70;99.90;;;;;;4991736;28;20089;-53
2023/03/09 07:49:14;;;;;;;1.55;1.25;;;8.70;99.90;;;;;;4992066;28;20480;-51
2023/03/09 07:51:40;;;;;;;4.63;4.22;;;8.80;99.90;;;;;;4992010;28;20033;-50
2023/03/09 07:54:06;;;;;;;6.93;3.70;;;8.80;99.90;;;;;;4991932;28;20104;-57
2023/03/09 07:56:33;;;;;;;3.55;2.17;;;8.90;99.90;;;;;;4992154;28;20030;-49
2023/03/09 07:58:59;;;;;;;3.50;1.40;;;8.90;99.90;;;;;;4992065;28;20077;-50
2023/03/09 08:04:46;;;;;;;15.30;5.57;;;9.10;99.90;;;;;;4995589;28;20392;-51
2023/03/09 08:07:11;;;;;;;3.28;2.38;;;9.10;99.90;;;;;;4995833;28;20026;-52
2023/03/09 08:09:37;;;;;;;2.95;1.83;;;9.20;99.90;;;;;;4995762;28;20033;-54
2023/03/09 08:12:04;;;;;;;4.63;2.67;;;9.30;99.90;;;;;;4995556;28;20061;-56
2023/03/09 08:14:30;;;;;;;1.40;1.30;;;9.40;99.90;;;;;;4995223;28;20065;-57
2023/03/09 08:16:55;;;;;;;3.40;1.88;;;9.40;99.90;;;;;;4995531;28;20023;-56
2023/03/09 08:19:21;;;;;;;5.32;1.63;;;9.40;99.90;;;;;;4995022;28;20050;-56
2023/03/09 08:21:48;;;;;;;2.10;1.70;;;9.40;99.90;;;;;;4995291;28;20018;-53
2023/03/09 08:24:15;;;;;;;2.55;1.45;;;9.40;99.90;;;;;;4994626;28;20113;-54
2023/03/09 08:26:41;;;;;;;1.67;1.55;;;9.40;99.90;;;;;;4994141;28;20107;-57
2023/03/09 08:29:06;;;;;;;6.60;1.67;;;9.40;99.90;;;;;;4995974;28;20031;-51
2023/03/09 08:31:34;;;;;;;4.35;1.55;;;9.40;99.90;;;;;;4993776;28;20034;-49
2023/03/09 08:34:00;;;;;;;4.53;1.83;;;9.50;99.90;;;;;;4995537;28;20613;-53
2023/03/09 08:36:25;;;;;;;4.20;1.70;;;9.60;99.90;;;;;;4995389;28;20034;-50
2023/03/09 08:38:51;;;;;;;2.40;1.70;;;9.80;99.90;;;;;;4995211;28;20023;-52
2023/03/09 08:41:17;;;;;;;1.73;1.63;;;9.90;99.90;;;;;;4995237;28;20022;-53
2023/03/09 08:43:43;;;;;;;3.53;1.45;;;10.00;99.90;;;;;;4993713;28;20069;-54
2023/03/09 08:46:10;;;;;;;3.15;1.77;;;10.20;99.90;;;;;;4995044;28;20057;-53
2023/03/09 08:48:36;;;;;;;2.33;1.30;;;10.20;99.90;;;;;;4994948;28;20369;-49
2023/03/09 08:51:05;;;;;;;8.45;1.60;;;10.30;99.90;;;;;;4994978;28;20041;-55
2023/03/09 08:53:32;;;;;;;3.67;2.08;;;10.20;99.90;;;;;;4994668;28;20180;-51
2023/03/09 08:55:57;;;;;;;2.45;1.45;;;10.10;99.90;;;;;;4994970;28;20023;-53
2023/03/09 08:58:23;;;;;;;4.35;1.48;;;10.20;99.90;;;;;;4994746;28;20029;-52
2023/03/09 09:00:49;;;;;;;2.45;1.65;;;10.10;99.90;;;;;;4994724;28;20041;-52
2023/03/09 09:03:15;;;;;;;2.20;1.50;;;10.00;99.90;;;;;;4994860;28;20023;-51
2023/03/09 09:05:40;;;;;;;1.58;1.30;;;9.70;99.90;;;;;;4994584;28;20026;-52
2023/03/09 09:08:06;;;;;;;2.63;1.65;;;9.60;99.90;;;;;;4994968;28;20027;-51
2023/03/09 09:10:33;;;;;;;1.83;1.70;;;9.50;99.90;;;;;;4993146;28;20026;-49
2023/03/09 09:13:02;;;;;;;3.55;1.60;;;9.50;99.90;;;;;;4993944;28;20105;-50
2023/03/09 09:15:28;;;;;;;3.20;1.30;;;9.60;99.90;;;;;;4993016;28;20653;-51
2023/03/09 09:17:54;;;;;;;1.27;1.15;;;9.70;99.90;;;;;;4994431;28;20080;-49
2023/03/09 09:20:19;;;;;;;2.88;1.40;;;9.90;99.90;;;;;;4994450;28;20022;-53
2023/03/09 09:22:45;;;;;;;1.65;1.30;;;10.10;99.90;;;;;;4994255;28;20480;-51
2023/03/09 09:25:11;;;;;;;2.47;1.23;;;10.20;99.90;;;;;;4993431;28;20397;-51
2023/03/09 09:27:37;;;;;;;4.28;1.20;;;10.50;99.90;;;;;;4994030;28;20077;-53
2023/03/09 09:30:04;;;;;;;1.20;1.10;;;10.30;99.90;;;;;;4994746;28;20023;-50
2023/03/09 09:32:30;;;;;;;1.30;1.20;;;10.30;99.90;;;;;;4994207;28;20054;-50
2023/03/09 09:34:57;;;;;;;1.00;1.00;;;10.40;99.90;;;;;;4994299;28;20425;-54
2023/03/09 09:37:22;;;;;;;1.45;1.35;;;10.80;99.90;;;;;;4994089;28;20084;-55
2023/03/09 09:39:48;;;;;;;2.38;1.30;;;11.10;99.90;;;;;;4994042;28;20465;-50
2023/03/09 09:42:43;;;;;;;2.40;1.33;;;11.30;99.90;;;;;;4993831;28;20417;-52
2023/03/09 09:45:35;;;;;;;2.72;1.23;;;11.30;99.90;;;;;;4991986;28;20476;-55
2023/03/09 09:48:06;;;;;;;4.15;1.42;;;11.30;99.90;;;;;;4993994;28;20057;-52
2023/03/09 09:51:06;;;;;;;11.73;6.07;;;11.40;99.90;;;;;;4994261;28;20026;-50
2023/03/09 09:53:43;;;;;;;15.93;6.95;;;11.60;99.90;;;;;;4993589;28;20038;-50
2023/03/09 09:56:14;;;;;;;11.27;4.90;;;11.80;99.90;;;;;;4994012;28;20101;-54
2023/03/09 09:58:49;;;;;;;19.33;8.43;;;12.00;99.90;;;;;;4993730;28;20046;-55
2023/03/09 10:01:44;;;;;;;22.50;9.27;;;12.10;99.90;;;;;;4994329;28;20386;-51
2023/03/09 10:04:19;;;;;;;7.80;3.00;;;12.10;99.90;;;;;;4988653;28;20045;-54
2023/03/09 10:06:48;;;;;;;33.92;18.48;;;11.60;99.90;;;;;;4993305;28;20066;-50
2023/03/09 10:09:25;;;;;;;5.20;2.20;;;11.50;99.90;;;;;;4993559;28;20121;-53
2023/03/09 10:11:54;;;;;;;12.18;6.85;;;11.70;99.90;;;;;;4993692;28;20030;-52
2023/03/09 10:14:42;;;;;;;2.08;1.30;;;11.50;99.90;;;;;;4993560;28;20045;-53
2023/03/09 10:17:08;;;;;;;8.70;1.92;;;11.70;1.00;;;;;;4994674;28;20046;-51
2023/03/09 10:19:40;;;;;;;4.18;1.65;;;12.00;99.90;;;;;;4993131;28;20085;-50
2023/03/09 10:22:17;;;;;;;2.10;1.52;;;12.10;99.90;;;;;;4993389;28;20626;-55
2023/03/09 10:24:50;;;;;;;6.85;1.20;;;12.50;1.00;;;;;;4992322;28;20080;-51
2023/03/09 10:27:49;;;;;;;2.97;1.75;;;12.60;1.00;;;;;;4992955;28;20045;-52
2023/03/09 10:30:25;;;;;;;32.70;11.27;;;12.60;99.90;;;;;;4993155;28;20039;-51
2023/03/09 10:33:00;;;;;;;3.10;1.35;;;12.50;1.00;;;;;;4992894;28;20073;-51
2023/03/09 10:35:35;;;;;;;2.78;1.40;;;13.00;99.90;;;;;;5010073;28;20112;-52
2023/03/09 10:38:01;;;;;;;2.90;1.50;;;13.00;99.90;;;;;;5012887;28;20080;-53
2023/03/09 10:40:30;;;;;;;9.85;1.70;;;13.10;99.90;;;;;;5012585;28;20018;-55
2023/03/09 10:42:58;;;;;;;1.75;1.10;;;13.00;99.90;;;;;;5000006;28;20022;-51
2023/03/09 10:45:30;;;;;;;3.47;1.50;;;13.30;1.00;;;;;;4992100;28;20014;-53
2023/03/09 10:48:00;;;;;;;8.43;3.58;;;14.10;99.90;;;;;;4992109;28;20030;-51
2023/03/09 10:50:40;;;;;;;11.02;3.38;;;14.20;90.40;;;;;;4992091;28;20023;-51
2023/03/09 10:53:41;;;;;;;13.52;5.03;;;14.30;93.10;;;;;;4992547;28;20026;-54
2023/03/09 10:56:19;;;;;;;5.97;1.38;;;15.20;92.80;;;;;;4981978;28;20058;-56
2023/03/09 10:58:45;;;;;;;10.75;1.88;;;15.60;90.40;;;;;;4991578;28;20054;-52
2023/03/09 11:01:16;;;;;;;2.63;1.10;;;15.00;92.00;;;;;;4992098;28;20716;-54
2023/03/09 11:03:43;;;;;;;3.20;2.13;;;15.80;91.10;;;;;;4991693;28;20019;-52
2023/03/09 11:06:08;;;;;;;4.78;1.33;;;15.50;88.30;;;;;;4990852;28;20029;-50
2023/03/09 11:08:34;;;;;;;2.67;1.20;;;14.70;87.90;;;;;;4991313;28;20421;-53
2023/03/09 11:11:02;;;;;;;7.55;1.42;;;14.60;90.80;;;;;;4991602;28;20042;-51
2023/03/09 11:13:27;;;;;;;2.33;1.40;;;14.80;88.40;;;;;;4991146;28;20393;-50
2023/03/09 11:16:14;;;;;;;6.60;1.80;;;14.50;88.70;;;;;;4991337;28;20022;-53
2023/03/09 11:18:40;;;;;;;4.50;1.85;;;13.70;89.60;;;;;;4992793;28;20026;-56
2023/03/09 11:21:06;;;;;;;3.17;1.90;;;13.10;89.80;;;;;;4992379;28;20461;-52
2023/03/09 11:23:55;;;;;;;2.20;1.38;;;13.00;90.70;;;;;;4990813;28;20109;-50
2023/03/09 11:26:42;;;;;;;2.90;1.50;;;12.80;90.70;;;;;;4989007;28;20038;-52
2023/03/09 11:29:07;;;;;;;3.58;1.33;;;12.80;91.60;;;;;;4992123;28;20441;-52
2023/03/09 11:31:36;;;;;;;3.45;1.20;;;14.00;90.00;;;;;;4992422;28;20046;-52
2023/03/09 11:34:05;;;;;;;1.50;1.17;;;15.10;83.60;;;;;;4991636;28;20023;-51
2023/03/09 11:36:45;;;;;;;4.38;1.10;;;15.90;80.30;;;;;;4994993;28;20026;-50
2023/03/09 11:39:24;;;;;;;1.58;1.10;;;16.70;80.30;;;;;;4996083;28;20109;-51
2023/03/09 11:41:53;;;;;;;2.70;1.02;;;15.60;79.90;;;;;;4995835;28;20049;-54
2023/03/09 11:44:33;;;;;;;4.38;1.40;;;15.30;83.40;;;;;;4991902;28;20077;-55
2023/03/09 11:47:22;;;;;;;2.42;1.08;;;15.60;81.20;;;;;;4976264;28;20038;-52
2023/03/09 11:49:49;;;;;;;2.17;1.10;;;17.30;76.50;;;;;;4972616;28;20134;-51
2023/03/09 11:52:22;;;;;;;2.20;1.00;;;17.20;72.90;;;;;;4978742;28;20049;-55
2023/03/09 11:54:51;;;;;;;1.70;0.98;;;17.20;70.70;;;;;;4995545;28;20037;-51
2023/03/09 11:57:20;;;;;;;2.45;0.77;;;17.30;71.60;;;;;;4995691;28;20030;-52
2023/03/09 11:59:57;;;;;;;1.95;1.20;;;16.70;69.30;;;;;;4995721;28;20037;-53
2023/03/09 12:02:29;;;;;;;1.75;1.05;;;16.40;72.50;;;;;;4995618;28;20433;-64
2023/03/09 12:04:55;;;;;;;3.47;1.25;;;16.60;70.90;;;;;;4995751;28;20031;-53
2023/03/09 12:07:29;;;;;;;2.20;1.15;;;16.20;71.80;;;;;;4994818;28;20026;-51
2023/03/09 12:10:07;;;;;;;4.20;0.98;;;15.50;71.30;;;;;;4993557;28;20026;-52
2023/03/09 12:12:55;;;;;;;2.17;0.88;;;15.40;72.60;;;;;;4994881;28;20028;-49
2023/03/09 12:15:30;;;;;;;6.00;3.22;;;16.40;69.30;;;;;;4994140;28;20469;-54
2023/03/09 12:17:58;;;;;;;3.03;1.50;;;16.90;68.30;;;;;;4994717;28;20113;-50
2023/03/09 12:20:31;;;;;;;14.73;7.65;;;17.70;66.80;;;;;;4995073;28;20040;-53
2023/03/09 12:22:57;;;;;;;3.07;1.97;;;17.90;66.00;;;;;;4995211;28;20026;-51
2023/03/09 12:25:24;;;;;;;0.90;0.82;;;18.00;64.90;;;;;;4994864;28;20033;-52
2023/03/09 12:27:53;;;;;;;1.40;0.93;;;18.40;66.80;;;;;;4994853;28;20058;-52
2023/03/09 12:30:22;;;;;;;4.30;0.98;;;18.40;62.40;;;;;;4995136;28;20034;-52
2023/03/09 12:32:48;;;;;;;1.25;1.13;;;18.80;63.90;;;;;;4994801;28;20027;-50
2023/03/09 12:35:33;;;;;;;1.85;0.75;;;18.80;59.30;;;;;;4994978;28;20029;-51
2023/03/09 12:38:15;;;;;;;2.60;1.30;;;18.60;60.10;;;;;;4994710;28;20058;-51
2023/03/09 12:40:41;;;;;;;3.92;0.80;;;19.70;59.50;;;;;;4994795;28;20049;-51
2023/03/09 12:43:13;;;;;;;0.60;0.43;;;19.20;57.20;;;;;;4994404;28;20025;-49
2023/03/09 12:45:39;;;;;;;2.20;0.65;;;19.90;58.40;;;;;;4994661;28;20076;-52
2023/03/09 12:48:15;;;;;;;2.90;1.58;;;18.30;58.20;;;;;;4993850;28;20085;-49
2023/03/09 12:50:46;;;;;;;1.55;0.63;;;18.70;58.00;;;;;;4993221;28;20485;-47
2023/03/09 12:53:20;;;;;;;3.17;0.80;;;19.70;56.20;;;;;;4994567;28;20030;-50
2023/03/09 12:56:17;;;;;;;1.42;0.95;;;19.40;55.40;;;;;;4994496;28;20034;-54
2023/03/09 12:58:53;;;;;;;6.47;1.15;;;18.50;54.30;;;;;;4993998;28;20042;-48
2023/03/09 13:01:32;;;;;;;2.50;1.08;;;17.30;56.30;;;;;;4994292;28;20474;-52
2023/03/09 13:04:20;;;;;;;3.05;1.20;;;17.20;57.80;;;;;;4994427;28;20027;-52
2023/03/09 13:07:00;;;;;;;4.97;3.60;;;16.80;57.90;;;;;;4994355;28;20026;-55
2023/03/09 13:09:33;;;;;;;4.00;1.10;;;17.50;56.90;;;;;;4993962;28;20053;-50
2023/03/09 13:12:01;;;;;;;2.23;1.00;;;18.60;55.30;;;;;;4994286;28;20030;-54